createdAt,value
2024-02-22T00:00:14.377Z,95214.41
2024-02-22T00:02:44.934Z,95206.94
2024-02-22T00:05:12.158Z,95222.41
2024-02-22T00:07:39.399Z,95218.94
2024-02-22T00:10:09.523Z,95211.19
2024-02-22T00:12:39.963Z,95221.88
2024-02-22T00:15:07.313Z,95201.06
2024-02-22T00:17:34.512Z,95212.25
2024-02-22T00:20:03.416Z,95213.38
2024-02-22T00:22:31.700Z,95205.34
2024-02-22T00:24:58.876Z,95197.91
2024-02-22T00:27:27.281Z,95187.22
2024-02-22T00:29:54.465Z,95173.31
2024-02-22T00:32:22.156Z,95162.13
2024-02-22T00:34:49.272Z,95158.66
2024-02-22T00:37:16.385Z,95153.56
2024-02-22T00:39:45.892Z,95143.44
2024-02-22T00:42:13.605Z,95139.44
2024-02-22T00:44:40.802Z,95126.88
2024-02-22T00:47:07.996Z,95118.84
2024-02-22T00:49:35.240Z,95111.66
2024-02-22T00:52:02.690Z,95112.47
2024-02-22T00:54:30.386Z,95098.06
2024-02-22T00:56:57.488Z,95097.50
2024-02-22T00:59:24.582Z,95066.00
2024-02-22T01:01:51.746Z,95067.59
2024-02-22T01:04:18.994Z,95049.41
2024-02-22T01:06:46.104Z,95052.09
2024-02-22T01:09:13.755Z,95039.25
2024-02-22T01:11:40.886Z,95032.84
2024-02-22T01:14:08.142Z,95016.56
2024-02-22T01:16:35.527Z,95019.47
2024-02-22T01:19:02.925Z,95011.47
2024-02-22T01:21:30.674Z,95009.88
2024-02-22T01:23:58.008Z,95007.72
2024-02-22T01:26:25.139Z,95002.41
2024-02-22T01:28:52.299Z,94998.13
2024-02-22T01:31:19.454Z,95001.88
2024-02-22T01:33:47.761Z,95006.94
2024-02-22T01:36:14.940Z,95001.31
2024-02-22T01:38:42.042Z,95006.13
2024-02-22T01:41:09.328Z,94990.63
2024-02-22T01:43:36.721Z,94976.47
2024-02-22T01:46:04.153Z,94951.88
2024-02-22T01:48:32.161Z,94953.75
2024-02-22T01:51:00.553Z,94950.28
2024-02-22T01:53:28.296Z,94947.34
2024-02-22T01:55:59.283Z,94943.63
2024-02-22T01:58:26.685Z,94952.97
2024-02-22T02:00:54.018Z,94947.09
2024-02-22T02:03:22.084Z,94941.25
2024-02-22T02:05:49.322Z,94938.84
2024-02-22T02:08:16.514Z,94943.91
2024-02-22T02:10:43.861Z,94938.03
2024-02-22T02:13:11.095Z,94935.63
2024-02-22T02:15:38.182Z,94919.84
2024-02-22T02:18:05.597Z,94938.56
2024-02-22T02:20:48.033Z,94942.31
2024-02-22T02:23:28.504Z,94930.31
2024-02-22T02:25:55.880Z,94943.66
2024-02-22T02:28:22.959Z,94945.78
2024-02-22T02:30:50.100Z,94940.44
2024-02-22T02:33:17.312Z,94935.66
2024-02-22T02:35:44.439Z,94920.66
2024-02-22T02:38:12.008Z,94903.84
2024-02-22T02:40:39.549Z,94885.66
2024-02-22T02:43:07.864Z,94887.00
2024-02-22T02:45:34.978Z,94883.53
2024-02-22T02:48:02.329Z,94886.72
2024-02-22T02:50:29.956Z,94861.84
2024-02-22T02:52:58.208Z,94857.81
2024-02-22T02:55:26.568Z,94843.09
2024-02-22T02:57:55.393Z,94831.56
2024-02-22T03:00:22.594Z,94827.03
2024-02-22T03:02:49.669Z,94819.53
2024-02-22T03:05:16.782Z,94804.53
2024-02-22T03:07:43.993Z,94801.56
2024-02-22T03:10:11.082Z,94791.16
2024-02-22T03:12:38.881Z,94801.34
2024-02-22T03:15:07.538Z,94800.25
2024-02-22T03:17:34.632Z,94799.75
2024-02-22T03:20:01.763Z,94797.09
2024-02-22T03:22:29.666Z,94792.59
2024-02-22T03:24:56.843Z,94792.84
2024-02-22T03:27:23.916Z,94799.56
2024-02-22T03:29:51.014Z,94797.97
2024-02-22T03:32:18.120Z,94798.25
2024-02-22T03:34:45.275Z,94798.50
2024-02-22T03:37:13.316Z,94801.44
2024-02-22T03:39:42.606Z,94799.31
2024-02-22T03:42:09.954Z,94794.50
2024-02-22T03:44:37.044Z,94802.00
2024-02-22T03:47:04.363Z,94799.06
2024-02-22T03:49:31.532Z,94796.09
2024-02-22T03:51:58.821Z,94789.41
2024-02-22T03:54:27.064Z,94795.56
2024-02-22T03:56:54.211Z,94801.44
2024-02-22T03:59:21.323Z,94799.31
2024-02-22T04:01:50.353Z,94805.44
2024-02-22T04:04:17.542Z,94817.75
2024-02-22T04:06:44.692Z,94825.78
2024-02-22T04:09:11.866Z,94842.09
2024-02-22T04:11:39.197Z,94844.50
2024-02-22T04:14:06.357Z,94857.84
2024-02-22T04:16:33.515Z,94859.72
2024-02-22T04:19:01.375Z,94874.16
2024-02-22T04:21:28.472Z,94877.13
2024-02-22T04:23:55.522Z,94893.94
2024-02-22T04:26:22.716Z,94897.69
2024-02-22T04:28:49.862Z,94906.22
2024-02-22T04:31:17.026Z,94910.50
2024-02-22T04:33:44.149Z,94913.72
2024-02-22T04:36:11.275Z,94925.19
2024-02-22T04:38:39.300Z,94926.28
2024-02-22T04:41:06.587Z,94933.50
2024-02-22T04:43:33.760Z,94936.19
2024-02-22T04:46:00.928Z,94941.50
2024-02-22T04:48:28.123Z,94946.59
2024-02-22T04:50:55.229Z,94952.47
2024-02-22T04:53:22.338Z,94953.25
2024-02-22T04:55:49.548Z,94962.38
2024-02-22T04:58:17.680Z,94961.56
2024-02-22T05:00:46.095Z,94962.63
2024-02-22T05:03:14.020Z,94978.13
2024-02-22T05:05:41.443Z,94987.19
2024-02-22T05:08:10.566Z,94994.66
2024-02-22T05:10:37.816Z,95005.66
2024-02-22T05:13:04.963Z,95007.78
2024-02-22T05:15:32.136Z,95017.41
2024-02-22T05:18:02.475Z,95023.25
2024-02-22T05:20:30.212Z,95035.81
2024-02-22T05:22:57.333Z,95044.06
2024-02-22T05:25:24.758Z,95049.72
2024-02-22T05:27:52.324Z,95059.03
2024-02-22T05:30:19.383Z,95067.31
2024-02-22T05:32:46.503Z,95086.81
2024-02-22T05:35:13.667Z,95083.34
2024-02-22T05:37:40.784Z,95086.81
2024-02-22T05:40:09.356Z,95087.34
2024-02-22T05:42:36.538Z,95090.28
2024-02-22T05:45:04.486Z,95083.09
2024-02-22T05:47:31.749Z,95077.19
2024-02-22T05:49:59.019Z,95068.38
2024-02-22T05:52:28.084Z,95058.50
2024-02-22T05:54:55.263Z,95014.19
2024-02-22T05:57:22.300Z,94957.56
2024-02-22T05:59:49.401Z,94907.94
2024-02-22T06:02:16.601Z,94831.28
2024-02-22T06:04:43.839Z,94745.09
2024-02-22T06:07:11.149Z,94661.22
2024-02-22T06:09:38.335Z,94589.16
2024-02-22T06:12:05.840Z,94537.63
2024-02-22T06:14:33.043Z,94501.84
2024-02-22T06:17:01.108Z,94463.69
2024-02-22T06:19:28.243Z,94462.63
2024-02-22T06:21:55.464Z,94456.78
2024-02-22T06:24:22.514Z,94483.16
2024-02-22T06:26:50.342Z,94475.16
2024-02-22T06:29:17.459Z,94469.31
2024-02-22T06:31:44.602Z,94476.22
2024-02-22T06:34:11.707Z,94491.97
2024-02-22T06:36:38.798Z,94511.75
2024-02-22T06:39:05.929Z,94541.41
2024-02-22T06:41:33.089Z,94557.41
2024-02-22T06:44:01.862Z,94585.41
2024-02-22T06:46:29.016Z,94616.38
2024-02-22T06:48:56.207Z,94644.41
2024-02-22T06:51:23.581Z,94667.63
2024-02-22T06:53:50.725Z,94692.47
2024-02-22T06:56:17.843Z,94713.56
2024-02-22T06:58:45.133Z,94743.16
2024-02-22T07:01:12.274Z,94779.22
2024-02-22T07:03:39.396Z,94816.84
2024-02-22T07:06:06.631Z,94842.75
2024-02-22T07:08:33.720Z,94870.00
2024-02-22T07:11:01.002Z,94918.56
2024-02-22T07:13:29.744Z,94949.84
2024-02-22T07:15:56.825Z,94984.25
2024-02-22T07:18:24.002Z,95035.00
2024-02-22T07:20:51.190Z,95059.84
2024-02-22T07:23:18.425Z,95101.78
2024-02-22T07:25:45.849Z,95130.09
2024-02-22T07:28:14.905Z,95156.78
2024-02-22T07:30:42.975Z,95183.50
2024-02-22T07:33:10.412Z,95194.97
2024-02-22T07:35:38.205Z,95238.25
2024-02-22T07:38:05.730Z,95272.97
2024-02-22T07:40:32.963Z,95300.50
2024-02-22T07:43:00.237Z,95339.50
2024-02-22T07:45:29.004Z,95387.56
2024-02-22T07:47:56.719Z,95419.09
2024-02-22T07:50:24.670Z,95451.16
2024-02-22T07:52:51.875Z,95483.19
2024-02-22T07:55:19.085Z,95515.81
2024-02-22T07:57:46.158Z,95531.59
2024-02-22T08:00:13.532Z,95561.22
2024-02-22T08:02:43.039Z,95582.09
2024-02-22T08:05:11.257Z,95618.41
2024-02-22T08:07:41.236Z,95647.00
2024-02-22T08:10:08.430Z,95670.78
2024-02-22T08:12:35.575Z,95692.97
2024-02-22T08:15:03.335Z,95733.03
2024-02-22T08:17:32.903Z,95765.66
2024-02-22T08:20:00.902Z,95795.88
2024-02-22T08:22:28.133Z,95820.72
2024-02-22T08:24:55.306Z,95851.47
2024-02-22T08:27:22.408Z,95866.69
2024-02-22T08:29:52.148Z,95894.22
2024-02-22T08:32:19.460Z,95913.72
2024-02-22T08:34:46.771Z,95939.63
2024-02-22T08:37:15.687Z,95957.88
2024-02-22T08:39:42.841Z,95982.97
2024-02-22T08:42:09.914Z,95989.34
2024-02-22T08:44:37.022Z,96022.00
2024-02-22T08:47:05.051Z,96041.50
2024-02-22T08:49:33.995Z,96063.47
2024-02-22T08:52:05.201Z,96089.38
2024-02-22T08:54:32.353Z,96103.56
2024-02-22T08:56:59.951Z,96125.75
2024-02-22T08:59:27.060Z,96142.31
2024-02-22T09:01:54.846Z,96163.97
2024-02-22T09:04:27.925Z,96178.94
2024-02-22T09:06:55.142Z,96197.41
2024-02-22T09:09:22.395Z,96222.03
2024-02-22T09:11:50.122Z,96212.97
2024-02-22T09:14:17.541Z,96261.06
2024-02-22T09:16:45.566Z,96268.88
2024-02-22T09:19:12.959Z,96293.47
2024-02-22T09:21:40.147Z,96295.91
2024-02-22T09:24:07.260Z,96309.84
2024-02-22T09:26:36.180Z,96306.13
2024-02-22T09:29:03.417Z,96302.66
2024-02-22T09:31:30.567Z,96321.91
2024-02-22T09:33:59.362Z,96332.88
2024-02-22T09:36:26.501Z,96354.25
2024-02-22T09:38:53.565Z,96371.66
2024-02-22T09:41:20.789Z,96392.00
2024-02-22T09:43:47.964Z,96398.16
2024-02-22T09:46:15.119Z,96418.50
2024-02-22T09:48:43.534Z,96430.00
2024-02-22T09:51:11.498Z,96445.00
2024-02-22T09:53:38.716Z,96472.56
2024-02-22T09:56:07.493Z,96495.31
2024-02-22T09:58:34.617Z,96516.47
2024-02-22T10:01:01.739Z,96517.31
2024-02-22T10:03:29.452Z,96537.41
2024-02-22T10:05:56.804Z,96549.75
2024-02-22T10:08:24.413Z,96568.47
2024-02-22T10:10:56.348Z,96594.72
2024-02-22T10:13:24.213Z,96599.47
2024-02-22T10:15:51.631Z,96629.03
2024-02-22T10:18:26.514Z,96636.56
2024-02-22T10:20:53.930Z,96661.81
2024-02-22T10:23:21.998Z,96681.94
2024-02-22T10:25:49.477Z,96690.22
2024-02-22T10:28:16.714Z,96714.84
2024-02-22T10:30:44.656Z,96735.78
2024-02-22T10:33:12.348Z,96765.81
2024-02-22T10:35:41.431Z,96774.41
2024-02-22T10:38:10.142Z,96805.13
2024-02-22T10:40:38.139Z,96817.47
2024-02-22T10:43:05.728Z,96845.03
2024-02-22T10:45:32.922Z,96857.72
2024-02-22T10:48:05.907Z,96866.34
2024-02-22T10:50:34.445Z,96853.56
2024-02-22T10:53:04.080Z,96848.06
2024-02-22T10:55:33.456Z,96841.34
2024-02-22T10:58:01.334Z,96851.56
2024-02-22T11:00:28.968Z,96833.66
2024-02-22T11:02:56.326Z,96816.22
2024-02-22T11:05:23.888Z,96792.69
2024-02-22T11:07:52.086Z,96789.78
2024-02-22T11:10:20.921Z,96782.34
2024-02-22T11:12:49.329Z,96782.47
2024-02-22T11:15:17.044Z,96768.03
2024-02-22T11:17:54.459Z,96775.63
2024-02-22T11:20:35.446Z,96771.88
2024-02-22T11:23:12.523Z,96779.22
2024-02-22T11:25:39.866Z,96770.63
2024-02-22T11:28:07.249Z,96778.41
2024-02-22T11:30:34.605Z,96771.66
2024-02-22T11:33:01.928Z,96772.25
2024-02-22T11:35:29.490Z,96778.41
2024-02-22T11:37:57.583Z,96776.78
2024-02-22T11:40:24.757Z,96776.34
2024-02-22T11:42:55.910Z,96779.56
2024-02-22T11:45:23.065Z,96790.63
2024-02-22T11:47:50.216Z,96810.31
2024-02-22T11:50:17.708Z,96834.06
2024-02-22T11:52:45.156Z,96830.34
2024-02-22T11:55:12.313Z,96844.56
2024-02-22T11:57:39.382Z,96849.19
2024-02-22T12:00:07.352Z,96844.31
2024-02-22T12:02:40.390Z,96840.25
2024-02-22T12:05:10.164Z,96828.72
2024-02-22T12:07:38.396Z,96843.84
2024-02-22T12:10:06.333Z,96845.25
2024-02-22T12:12:33.439Z,96842.22
2024-02-22T12:15:02.913Z,96847.72
2024-02-22T12:17:35.444Z,96850.94
2024-02-22T12:20:03.935Z,96850.28
2024-02-22T12:22:32.525Z,96839.56
2024-02-22T12:24:59.902Z,96845.72
2024-02-22T12:27:27.923Z,96834.09
2024-02-22T12:29:55.946Z,96825.81
2024-02-22T12:32:23.250Z,96820.69
2024-02-22T12:34:54.482Z,96801.44
2024-02-22T12:37:21.932Z,96798.78
2024-02-22T12:39:49.326Z,96788.66
2024-02-22T12:42:16.561Z,96772.97
2024-02-22T12:44:43.624Z,96769.56
2024-02-22T12:47:13.360Z,96756.75
2024-02-22T12:49:40.769Z,96738.09
2024-02-22T12:52:07.969Z,96731.25
2024-02-22T12:54:35.260Z,96700.13
2024-02-22T12:57:02.447Z,96684.06
2024-02-22T12:59:29.599Z,96658.91
2024-02-22T13:01:56.737Z,96639.06
2024-02-22T13:04:23.946Z,96618.22
2024-02-22T13:06:51.311Z,96600.41
2024-02-22T13:09:18.527Z,96593.19
2024-02-22T13:11:45.827Z,96570.38
2024-02-22T13:14:13.033Z,96569.91
2024-02-22T13:16:40.206Z,96548.94
2024-02-22T13:19:07.509Z,96552.66
2024-02-22T13:21:34.864Z,96534.97
2024-02-22T13:24:03.219Z,96533.91
2024-02-22T13:26:30.537Z,96499.09
2024-02-22T13:28:57.835Z,96502.81
2024-02-22T13:31:25.107Z,96501.53
2024-02-22T13:33:52.442Z,96502.69
2024-02-22T13:36:19.680Z,96497.31
2024-02-22T13:38:46.757Z,96478.56
2024-02-22T13:41:14.279Z,96470.53
2024-02-22T13:43:42.617Z,96453.63
2024-02-22T13:46:10.107Z,96434.31
2024-02-22T13:48:38.658Z,96450.47
2024-02-22T13:51:06.385Z,96438.69
2024-02-22T13:53:33.670Z,96436.59
2024-02-22T13:56:01.112Z,96400.06
2024-02-22T13:58:29.311Z,96405.41
2024-02-22T14:00:56.492Z,96373.81
2024-02-22T14:03:23.696Z,96369.53
2024-02-22T14:05:53.171Z,96340.06
2024-02-22T14:08:22.205Z,96336.06
2024-02-22T14:10:49.746Z,96307.66
2024-02-22T14:13:22.859Z,96294.53
2024-02-22T14:15:53.181Z,96257.50
2024-02-22T14:18:20.489Z,96233.94
2024-02-22T14:20:47.653Z,96205.84
2024-02-22T14:23:15.400Z,96180.38
2024-02-22T14:25:44.378Z,96165.34
2024-02-22T14:28:14.359Z,96126.47
2024-02-22T14:30:41.453Z,96128.53
2024-02-22T14:33:08.633Z,96107.44
2024-02-22T14:35:35.937Z,96105.00
2024-02-22T14:38:04.273Z,96089.72
2024-02-22T14:40:31.550Z,96085.94
2024-02-22T14:42:58.658Z,96082.72
2024-02-22T14:45:25.754Z,96065.03
2024-02-22T14:47:54.077Z,96069.78
2024-02-22T14:50:21.504Z,96057.78
2024-02-22T14:52:48.810Z,96066.28
2024-02-22T14:55:16.000Z,96055.81
2024-02-22T14:57:43.059Z,96061.19
2024-02-22T15:00:10.487Z,96059.03
2024-02-22T15:02:38.043Z,96069.75
2024-02-22T15:05:05.414Z,96078.81
2024-02-22T15:07:32.641Z,96085.25
2024-02-22T15:10:01.415Z,96090.84
2024-02-22T15:12:29.347Z,96113.06
2024-02-22T15:14:56.449Z,96108.25
2024-02-22T15:17:23.792Z,96117.31
2024-02-22T15:19:51.574Z,96123.16
2024-02-22T15:22:18.916Z,96145.41
2024-02-22T15:24:45.986Z,96172.41
2024-02-22T15:27:13.077Z,96181.03
2024-02-22T15:29:40.146Z,96196.50
2024-02-22T15:32:07.878Z,96232.38
2024-02-22T15:34:35.803Z,96236.09
2024-02-22T15:37:03.352Z,96261.28
2024-02-22T15:39:30.439Z,96270.91
2024-02-22T15:41:57.528Z,96296.09
2024-02-22T15:44:24.971Z,96314.25
2024-02-22T15:46:52.325Z,96315.88
2024-02-22T15:49:19.668Z,96340.00
2024-02-22T15:51:46.782Z,96359.19
2024-02-22T15:54:14.247Z,96368.06
2024-02-22T15:56:41.552Z,96391.56
2024-02-22T15:59:08.704Z,96397.19
2024-02-22T16:01:35.898Z,96421.84
2024-02-22T16:04:04.217Z,96430.38
2024-02-22T16:06:32.598Z,96441.06
2024-02-22T16:09:00.384Z,96461.69
2024-02-22T16:11:27.954Z,96473.66
2024-02-22T16:13:58.555Z,96486.47
2024-02-22T16:16:26.004Z,96509.28
2024-02-22T16:18:56.849Z,96533.38
2024-02-22T16:21:24.358Z,96538.97
2024-02-22T16:23:55.178Z,96537.59
2024-02-22T16:26:22.471Z,96565.19
2024-02-22T16:28:49.857Z,96578.56
2024-02-22T16:31:17.196Z,96602.66
2024-02-22T16:33:46.175Z,96623.81
2024-02-22T16:36:14.347Z,96633.16
2024-02-22T16:38:49.455Z,96647.59
2024-02-22T16:41:28.204Z,96678.44
2024-02-22T16:43:55.642Z,96688.56
2024-02-22T16:46:22.855Z,96714.28
2024-02-22T16:48:50.172Z,96737.81
2024-02-22T16:51:18.610Z,96758.19
2024-02-22T16:53:48.044Z,96777.72
2024-02-22T16:56:15.259Z,96796.47
2024-02-22T16:58:42.542Z,96816.03
2024-02-22T17:01:10.056Z,96844.66
2024-02-22T17:03:37.270Z,96859.69
2024-02-22T17:06:04.835Z,96879.47
2024-02-22T17:08:32.166Z,96877.81
2024-02-22T17:10:59.513Z,96906.00
2024-02-22T17:13:28.768Z,96916.94
2024-02-22T17:15:56.447Z,96949.06
2024-02-22T17:18:23.822Z,96976.66
2024-02-22T17:20:51.020Z,96994.38
2024-02-22T17:23:18.193Z,97010.66
2024-02-22T17:25:45.279Z,97029.41
2024-02-22T17:28:12.529Z,97051.63
2024-02-22T17:30:39.563Z,97068.53
2024-02-22T17:33:07.064Z,97095.28
2024-02-22T17:35:34.361Z,97108.69
2024-02-22T17:38:03.612Z,97147.78
2024-02-22T17:40:30.736Z,97156.88
2024-02-22T17:42:57.793Z,97158.47
2024-02-22T17:45:24.865Z,97184.22
2024-02-22T17:47:52.019Z,97200.28
2024-02-22T17:50:19.322Z,97225.41
2024-02-22T17:52:46.479Z,97253.25
2024-02-22T17:55:13.594Z,97268.25
2024-02-22T17:57:41.908Z,97275.50
2024-02-22T18:00:09.239Z,97286.22
2024-02-22T18:02:39.380Z,97295.03
2024-02-22T18:05:06.626Z,97287.00
2024-02-22T18:07:34.666Z,97305.31
2024-02-22T18:10:01.749Z,97309.03
2024-02-22T18:12:29.189Z,97312.31
2024-02-22T18:14:57.114Z,97319.75
2024-02-22T18:17:24.385Z,97317.28
2024-02-22T18:19:51.591Z,97344.47
2024-02-22T18:22:24.871Z,97354.34
2024-02-22T18:24:51.993Z,97371.25
2024-02-22T18:27:19.173Z,97384.63
2024-02-22T18:29:46.284Z,97398.84
2024-02-22T18:32:13.400Z,97399.66
2024-02-22T18:34:40.938Z,97410.38
2024-02-22T18:37:09.014Z,97409.34
2024-02-22T18:39:36.114Z,97423.56
2024-02-22T18:42:03.329Z,97444.97
2024-02-22T18:44:32.667Z,97456.47
2024-02-22T18:46:59.834Z,97463.94
2024-02-22T18:49:26.971Z,97484.31
2024-02-22T18:51:54.460Z,97486.19
2024-02-22T18:54:21.715Z,97478.97
2024-02-22T18:56:49.411Z,97468.25
2024-02-22T18:59:20.465Z,97358.47
2024-02-22T19:01:49.083Z,97313.97
2024-02-22T19:04:21.536Z,97310.25
2024-02-22T19:06:49.294Z,97318.28
2024-02-22T19:09:18.661Z,97315.00
2024-02-22T19:11:46.250Z,97312.09
2024-02-22T19:14:14.639Z,97310.25
2024-02-22T19:16:42.017Z,97307.56
2024-02-22T19:19:09.338Z,97313.97
2024-02-22T19:21:40.479Z,97310.47
2024-02-22T19:24:07.707Z,97300.78
2024-02-22T19:26:34.866Z,97308.00
2024-02-22T19:29:02.217Z,97303.69
2024-02-22T19:31:36.143Z,97318.94
2024-02-22T19:34:04.910Z,97319.97
2024-02-22T19:36:41.300Z,97337.88
2024-02-22T19:39:12.593Z,97343.25
2024-02-22T19:41:41.072Z,97361.97
2024-02-22T19:44:08.344Z,97371.66
2024-02-22T19:46:35.541Z,97386.09
2024-02-22T19:49:02.721Z,97396.78
2024-02-22T19:51:31.442Z,97417.63
2024-02-22T19:53:58.509Z,97427.31
2024-02-22T19:56:26.243Z,97441.72
2024-02-22T19:58:57.140Z,97455.94
2024-02-22T20:01:24.365Z,97474.91
2024-02-22T20:03:52.657Z,97492.81
2024-02-22T20:06:19.892Z,97494.66
2024-02-22T20:08:47.015Z,97516.09
2024-02-22T20:11:14.221Z,97522.47
2024-02-22T20:13:41.490Z,97529.47
2024-02-22T20:16:08.613Z,97532.38
2024-02-22T20:18:35.734Z,97542.25
2024-02-22T20:21:02.914Z,97553.56
2024-02-22T20:23:30.222Z,97552.75
2024-02-22T20:25:57.508Z,97562.03
2024-02-22T20:28:26.019Z,97569.03
2024-02-22T20:30:53.454Z,97567.38
2024-02-22T20:33:21.512Z,97587.19
2024-02-22T20:35:50.698Z,97595.63
2024-02-22T20:38:18.232Z,97608.41
2024-02-22T20:40:45.484Z,97628.78
2024-02-22T20:43:13.580Z,97634.34
2024-02-22T20:45:40.745Z,97652.25
2024-02-22T20:48:08.772Z,97665.66
2024-02-22T20:50:36.982Z,97668.31
2024-02-22T20:53:04.236Z,97688.91
2024-02-22T20:55:32.264Z,97704.97
2024-02-22T20:57:59.712Z,97710.34
2024-02-22T21:00:26.979Z,97713.25
2024-02-22T21:02:54.246Z,97740.84
2024-02-22T21:05:22.196Z,97756.09
2024-02-22T21:07:49.709Z,97771.31
2024-02-22T21:10:16.929Z,97785.53
2024-02-22T21:12:44.135Z,97801.78
2024-02-22T21:15:11.265Z,97826.09
2024-02-22T21:17:38.701Z,97830.63
2024-02-22T21:20:06.840Z,97847.50
2024-02-22T21:22:34.329Z,97866.44
2024-02-22T21:25:01.529Z,97879.81
2024-02-22T21:27:28.828Z,97900.22
2024-02-22T21:29:56.007Z,97893.41
2024-02-22T21:32:23.249Z,97910.53
2024-02-22T21:34:50.459Z,97931.72
2024-02-22T21:37:17.609Z,97937.50
2024-02-22T21:39:44.712Z,97962.63
2024-02-22T21:42:13.900Z,97981.53
2024-02-22T21:44:44.106Z,98001.31
2024-02-22T21:47:11.290Z,98023.75
2024-02-22T21:49:39.720Z,98034.44
2024-02-22T21:52:06.990Z,98021.06
2024-02-22T21:54:35.399Z,97987.94
2024-02-22T21:57:02.856Z,97998.63
2024-02-22T21:59:29.997Z,98014.09
2024-02-22T22:01:57.120Z,98026.66
2024-02-22T22:04:24.266Z,98053.41
2024-02-22T22:06:51.330Z,98075.66
2024-02-22T22:09:19.037Z,98103.25
2024-02-22T22:11:46.333Z,98124.66
2024-02-22T22:14:13.788Z,98137.22
2024-02-22T22:16:40.902Z,98160.50
2024-02-22T22:19:09.340Z,98202.53
2024-02-22T22:21:38.180Z,98212.00
2024-02-22T22:24:06.323Z,98227.03
2024-02-22T22:26:34.372Z,98245.59
2024-02-22T22:29:07.566Z,98245.78
2024-02-22T22:31:35.258Z,98266.81
2024-02-22T22:34:08.486Z,98235.91
2024-02-22T22:36:35.771Z,98183.97
2024-02-22T22:39:03.435Z,98094.13
2024-02-22T22:41:30.819Z,97997.34
2024-02-22T22:43:58.053Z,97895.66
2024-02-22T22:46:25.149Z,97800.13
2024-02-22T22:48:52.380Z,97694.13
2024-02-22T22:51:19.467Z,97614.72
2024-02-22T22:53:46.571Z,97525.25
2024-02-22T22:56:13.686Z,97448.28
2024-02-22T22:58:40.797Z,97376.13
2024-02-22T23:01:07.925Z,97322.06
2024-02-22T23:03:35.047Z,97262.00
2024-02-22T23:06:02.476Z,97207.72
2024-02-22T23:08:29.659Z,97169.91
2024-02-22T23:10:56.793Z,97110.72
2024-02-22T23:13:23.896Z,97056.66
2024-02-22T23:15:51.443Z,97011.22
2024-02-22T23:18:19.611Z,96982.84
2024-02-22T23:20:46.802Z,96933.09
2024-02-22T23:23:14.655Z,96893.22
2024-02-22T23:25:42.667Z,96869.78
2024-02-22T23:28:09.801Z,96844.91
2024-02-22T23:30:38.320Z,96828.28
2024-02-22T23:33:05.852Z,96805.25
2024-02-22T23:35:33.443Z,96767.69
2024-02-22T23:38:00.711Z,96745.63
2024-02-22T23:40:27.831Z,96727.41
2024-02-22T23:42:54.895Z,96700.91
2024-02-22T23:45:21.969Z,96694.28
2024-02-22T23:47:51.734Z,96648.94
2024-02-22T23:50:18.896Z,96636.75
2024-02-22T23:52:46.286Z,96609.66
2024-02-22T23:55:13.864Z,96580.28
2024-02-22T23:57:40.901Z,96557.28
